createdAt,value
2023-03-19T00:00:26.835Z,11.71
2023-03-19T00:02:53.416Z,11.67
2023-03-19T00:05:19.984Z,11.64
2023-03-19T00:07:46.448Z,11.66
2023-03-19T00:10:13.336Z,11.62
2023-03-19T00:12:39.931Z,11.63
2023-03-19T00:15:09.061Z,11.62
2023-03-19T00:17:35.792Z,11.63
2023-03-19T00:20:02.232Z,11.64
2023-03-19T00:22:28.633Z,11.64
2023-03-19T00:24:55.007Z,11.65
2023-03-19T00:27:21.577Z,11.63
2023-03-19T00:29:48.595Z,11.62
2023-03-19T00:32:15.519Z,11.61
2023-03-19T00:34:42.778Z,11.59
2023-03-19T00:37:09.148Z,11.59
2023-03-19T00:39:35.596Z,11.59
2023-03-19T00:42:02.055Z,11.59
2023-03-19T00:44:28.479Z,11.58
2023-03-19T00:46:54.884Z,11.59
2023-03-19T00:49:21.324Z,11.59
2023-03-19T00:51:47.790Z,11.60
2023-03-19T00:54:14.319Z,11.59
2023-03-19T00:56:41.078Z,11.59
2023-03-19T00:59:07.851Z,11.58
2023-03-19T01:01:34.723Z,11.54
2023-03-19T01:04:01.647Z,11.50
2023-03-19T01:06:28.148Z,11.47
2023-03-19T01:08:54.568Z,11.46
2023-03-19T01:11:21.118Z,11.47
2023-03-19T01:13:47.996Z,11.48
2023-03-19T01:16:14.655Z,11.45
2023-03-19T01:18:41.116Z,11.46
2023-03-19T01:21:08.300Z,11.45
2023-03-19T01:23:34.790Z,11.44
2023-03-19T01:26:01.656Z,11.44
2023-03-19T01:28:28.109Z,11.42
2023-03-19T01:30:59.939Z,11.42
2023-03-19T01:33:26.621Z,11.41
2023-03-19T01:35:53.062Z,11.39
2023-03-19T01:38:19.781Z,11.38
2023-03-19T01:40:47.931Z,11.37
2023-03-19T01:43:23.881Z,11.37
2023-03-19T01:45:52.907Z,11.36
2023-03-19T01:48:27.559Z,11.36
2023-03-19T01:50:55.902Z,11.35
2023-03-19T01:53:25.969Z,11.35
2023-03-19T01:55:57.380Z,11.35
2023-03-19T01:58:25.907Z,11.35
2023-03-19T02:00:53.105Z,11.34
2023-03-19T02:03:19.597Z,11.31
2023-03-19T02:05:49.228Z,11.28
2023-03-19T02:08:17.580Z,11.23
2023-03-19T02:10:46.367Z,11.18
2023-03-19T02:13:13.151Z,11.12
2023-03-19T02:15:40.089Z,11.07
2023-03-19T02:18:07.657Z,11.03
2023-03-19T02:20:43.424Z,10.97
2023-03-19T02:23:47.624Z,10.91
2023-03-19T02:26:16.345Z,10.86
2023-03-19T02:28:45.845Z,10.82
2023-03-19T02:31:12.940Z,10.79
2023-03-19T02:33:40.000Z,10.74
2023-03-19T02:36:13.247Z,10.72
2023-03-19T02:38:42.740Z,10.69
2023-03-19T02:41:09.832Z,10.67
2023-03-19T02:43:39.129Z,10.65
2023-03-19T02:46:08.414Z,10.62
2023-03-19T02:48:35.349Z,10.59
2023-03-19T02:51:01.755Z,10.57
2023-03-19T02:53:28.127Z,10.54
2023-03-19T02:55:54.676Z,10.55
2023-03-19T02:58:21.191Z,10.55
2023-03-19T03:00:47.746Z,10.53
2023-03-19T03:03:14.305Z,10.53
2023-03-19T03:05:40.726Z,10.53
2023-03-19T03:08:07.118Z,10.50
2023-03-19T03:10:33.941Z,10.50
2023-03-19T03:13:01.484Z,10.47
2023-03-19T03:15:28.162Z,10.42
2023-03-19T03:17:56.337Z,10.40
2023-03-19T03:20:23.534Z,10.41
2023-03-19T03:22:50.279Z,10.43
2023-03-19T03:25:16.796Z,10.44
2023-03-19T03:27:43.255Z,10.45
2023-03-19T03:30:10.778Z,10.44
2023-03-19T03:32:38.601Z,10.43
2023-03-19T03:35:07.116Z,10.41
2023-03-19T03:37:33.489Z,10.38
2023-03-19T03:40:00.024Z,10.39
2023-03-19T03:42:27.089Z,10.38
2023-03-19T03:44:53.498Z,10.38
2023-03-19T03:47:19.914Z,10.37
2023-03-19T03:49:46.288Z,10.36
2023-03-19T03:52:13.001Z,10.35
2023-03-19T03:54:39.427Z,10.37
2023-03-19T03:57:06.045Z,10.37
2023-03-19T03:59:32.831Z,10.36
2023-03-19T04:01:59.351Z,10.34
2023-03-19T04:04:26.563Z,10.35
2023-03-19T04:06:53.036Z,10.38
2023-03-19T04:09:19.609Z,10.40
2023-03-19T04:11:46.055Z,10.40
2023-03-19T04:14:12.480Z,10.42
2023-03-19T04:16:39.299Z,10.44
2023-03-19T04:19:07.610Z,10.48
2023-03-19T04:21:34.061Z,10.46
2023-03-19T04:24:00.684Z,10.45
2023-03-19T04:26:27.140Z,10.44
2023-03-19T04:28:53.524Z,10.41
2023-03-19T04:31:19.999Z,10.43
2023-03-19T04:33:46.410Z,10.42
2023-03-19T04:36:13.262Z,10.42
2023-03-19T04:38:39.672Z,10.43
2023-03-19T04:41:06.207Z,10.44
2023-03-19T04:43:32.880Z,10.44
2023-03-19T04:45:59.525Z,10.45
2023-03-19T04:48:26.487Z,10.46
2023-03-19T04:50:56.879Z,10.47
2023-03-19T04:53:24.750Z,10.49
2023-03-19T04:55:51.620Z,10.50
2023-03-19T04:58:18.233Z,10.49
2023-03-19T05:00:46.903Z,10.49
2023-03-19T05:03:17.060Z,10.54
2023-03-19T05:05:43.686Z,10.53
2023-03-19T05:08:10.722Z,10.58
2023-03-19T05:10:37.972Z,10.59
2023-03-19T05:13:04.511Z,10.59
2023-03-19T05:15:30.968Z,10.60
2023-03-19T05:17:57.786Z,10.59
2023-03-19T05:20:24.421Z,10.61
2023-03-19T05:22:52.818Z,10.61
2023-03-19T05:25:19.518Z,10.60
2023-03-19T05:27:46.117Z,10.60
2023-03-19T05:30:12.952Z,10.61
2023-03-19T05:32:40.598Z,10.60
2023-03-19T05:35:07.511Z,10.60
2023-03-19T05:37:33.966Z,10.62
2023-03-19T05:40:00.561Z,10.63
2023-03-19T05:42:26.995Z,10.65
2023-03-19T05:44:53.632Z,10.64
2023-03-19T05:47:20.166Z,10.67
2023-03-19T05:49:46.579Z,10.68
2023-03-19T05:52:13.068Z,10.67
2023-03-19T05:54:39.956Z,10.65
2023-03-19T05:57:06.651Z,10.62
2023-03-19T05:59:33.402Z,10.59
2023-03-19T06:01:59.837Z,10.61
2023-03-19T06:04:26.535Z,10.60
2023-03-19T06:06:53.117Z,10.59
2023-03-19T06:09:20.030Z,10.59
2023-03-19T06:11:46.495Z,10.62
2023-03-19T06:14:12.935Z,10.64
2023-03-19T06:16:39.411Z,10.66
2023-03-19T06:19:05.825Z,10.66
2023-03-19T06:21:32.297Z,10.68
2023-03-19T06:23:58.897Z,10.69
2023-03-19T06:26:26.337Z,10.72
2023-03-19T06:28:52.969Z,10.73
2023-03-19T06:31:19.764Z,10.79
2023-03-19T06:33:46.643Z,10.81
2023-03-19T06:36:13.106Z,10.86
2023-03-19T06:38:39.545Z,10.91
2023-03-19T06:41:06.163Z,10.97
2023-03-19T06:43:36.828Z,11.02
2023-03-19T06:46:04.943Z,11.06
2023-03-19T06:48:31.647Z,11.10
2023-03-19T06:50:58.121Z,11.14
2023-03-19T06:53:24.723Z,11.17
2023-03-19T06:56:00.442Z,11.17
2023-03-19T06:58:27.094Z,11.19
2023-03-19T07:00:53.893Z,11.23
2023-03-19T07:03:20.602Z,11.24
2023-03-19T07:05:50.076Z,11.29
2023-03-19T07:08:16.746Z,11.33
2023-03-19T07:10:43.275Z,11.35
2023-03-19T07:13:09.798Z,11.39
2023-03-19T07:15:36.570Z,11.44
2023-03-19T07:18:04.127Z,11.48
2023-03-19T07:20:30.636Z,11.52
2023-03-19T07:22:57.116Z,11.56
2023-03-19T07:25:23.566Z,11.60
2023-03-19T07:27:50.280Z,11.61
2023-03-19T07:30:16.835Z,11.69
2023-03-19T07:32:43.932Z,11.74
2023-03-19T07:35:10.802Z,11.78
2023-03-19T07:37:37.550Z,11.85
2023-03-19T07:40:05.189Z,11.92
2023-03-19T07:42:31.929Z,11.98
2023-03-19T07:44:58.298Z,12.02
2023-03-19T07:47:29.348Z,12.06
2023-03-19T07:49:56.620Z,12.10
2023-03-19T07:52:23.738Z,12.14
2023-03-19T07:54:50.637Z,12.19
2023-03-19T07:57:17.085Z,12.25
2023-03-19T07:59:43.506Z,12.29
2023-03-19T08:02:11.740Z,12.30
2023-03-19T08:04:38.497Z,12.24
2023-03-19T08:07:05.184Z,12.23
2023-03-19T08:09:32.236Z,12.28
2023-03-19T08:11:58.658Z,12.29
2023-03-19T08:14:25.224Z,12.31
2023-03-19T08:16:51.724Z,12.34
2023-03-19T08:19:18.729Z,12.35
2023-03-19T08:21:45.415Z,12.38
2023-03-19T08:24:11.863Z,12.40
2023-03-19T08:26:38.349Z,12.41
2023-03-19T08:29:04.801Z,12.44
2023-03-19T08:31:31.239Z,12.47
2023-03-19T08:34:00.105Z,12.47
2023-03-19T08:36:27.272Z,12.49
2023-03-19T08:38:54.833Z,12.48
2023-03-19T08:41:21.825Z,12.49
2023-03-19T08:43:48.227Z,12.47
2023-03-19T08:46:15.297Z,12.46
2023-03-19T08:48:42.054Z,12.47
2023-03-19T08:51:09.895Z,12.49
2023-03-19T08:53:37.041Z,12.50
2023-03-19T08:56:06.251Z,12.50
2023-03-19T08:58:32.701Z,12.49
2023-03-19T09:01:09.937Z,12.52
2023-03-19T09:03:37.700Z,12.54
2023-03-19T09:06:06.348Z,12.60
2023-03-19T09:08:32.868Z,12.69
2023-03-19T09:10:59.392Z,12.74
2023-03-19T09:13:26.575Z,12.79
2023-03-19T09:15:53.487Z,12.85
2023-03-19T09:18:20.782Z,12.90
2023-03-19T09:20:47.632Z,12.94
2023-03-19T09:23:14.023Z,13.00
2023-03-19T09:25:40.655Z,13.07
2023-03-19T09:28:07.399Z,13.14
2023-03-19T09:30:33.856Z,13.18
2023-03-19T09:33:00.513Z,13.23
2023-03-19T09:35:31.145Z,13.28
2023-03-19T09:37:58.787Z,13.30
2023-03-19T09:40:29.951Z,13.32
2023-03-19T09:43:03.849Z,13.42
2023-03-19T09:45:30.358Z,13.50
2023-03-19T09:48:04.243Z,13.56
2023-03-19T09:50:34.659Z,13.61
2023-03-19T09:53:40.399Z,13.61
2023-03-19T09:56:12.891Z,13.60
2023-03-19T09:58:39.367Z,13.59
2023-03-19T10:01:06.559Z,13.59
2023-03-19T10:03:46.718Z,13.57
2023-03-19T10:06:35.524Z,13.60
2023-03-19T10:09:21.730Z,13.62
2023-03-19T10:12:05.887Z,13.64
2023-03-19T10:14:57.040Z,13.64
2023-03-19T10:17:30.766Z,13.64
2023-03-19T10:20:06.250Z,13.68
2023-03-19T10:22:44.833Z,13.72
2023-03-19T10:25:18.476Z,13.76
2023-03-19T10:27:47.261Z,13.82
2023-03-19T10:30:16.012Z,13.86
2023-03-19T10:32:53.065Z,13.94
2023-03-19T10:35:24.498Z,14.03
2023-03-19T10:37:51.210Z,14.11
2023-03-19T10:40:26.473Z,14.43
2023-03-19T10:43:01.889Z,14.93
2023-03-19T10:45:31.597Z,15.41
2023-03-19T10:47:59.084Z,15.82
2023-03-19T10:50:36.194Z,16.06
2023-03-19T10:53:07.666Z,16.08
2023-03-19T10:55:34.635Z,15.91
2023-03-19T10:58:17.235Z,15.71
2023-03-19T11:06:34.159Z,15.48
2023-03-19T11:10:20.588Z,15.46
2023-03-19T11:12:57.973Z,15.44
2023-03-19T11:15:32.746Z,15.30
2023-03-19T11:18:08.824Z,15.27
2023-03-19T11:20:38.275Z,15.24
2023-03-19T11:23:19.276Z,15.21
2023-03-19T11:25:53.883Z,15.13
2023-03-19T11:38:01.161Z,14.81
2023-03-19T11:40:57.817Z,14.82
2023-03-19T11:43:46.146Z,14.82
2023-03-19T12:14:13.041Z,15.24
2023-03-19T12:16:52.262Z,15.10
2023-03-19T12:19:45.973Z,15.19
2023-03-19T12:22:25.689Z,15.38
2023-03-19T12:25:26.409Z,15.57
2023-03-19T12:28:02.659Z,15.72
2023-03-19T12:31:06.865Z,15.79
2023-03-19T12:33:48.748Z,15.86
2023-03-19T12:36:23.259Z,15.83
2023-03-19T12:38:54.036Z,15.78
2023-03-19T12:41:26.987Z,15.75
2023-03-19T12:44:06.260Z,15.79
2023-03-19T12:47:05.285Z,15.68
2023-03-19T12:49:39.332Z,15.59
2023-03-19T12:52:29.186Z,15.48
2023-03-19T12:55:22.594Z,15.43
2023-03-19T12:58:03.092Z,15.33
2023-03-19T13:00:59.481Z,15.39
2023-03-19T13:03:42.181Z,15.45
2023-03-19T13:06:37.153Z,15.30
2023-03-19T13:09:31.998Z,15.29
2023-03-19T13:12:17.507Z,15.31
2023-03-19T13:15:25.158Z,15.22
2023-03-19T13:18:03.368Z,15.23
2023-03-19T13:20:56.882Z,15.17
2023-03-19T13:23:28.920Z,15.21
2023-03-19T13:25:57.794Z,15.18
2023-03-19T13:28:33.521Z,15.14
2023-03-19T13:31:01.420Z,15.09
2023-03-19T13:33:29.001Z,15.10
2023-03-19T13:35:56.585Z,15.14
2023-03-19T13:38:32.271Z,15.14
2023-03-19T13:41:00.309Z,15.17
2023-03-19T13:43:29.818Z,15.15
2023-03-19T13:46:17.721Z,15.17
2023-03-19T13:48:46.863Z,15.14
2023-03-19T13:51:17.794Z,15.10
2023-03-19T13:54:12.984Z,15.06
2023-03-19T13:57:05.595Z,15.06
2023-03-19T13:59:37.695Z,15.11
2023-03-19T14:02:24.216Z,15.25
2023-03-19T14:04:58.236Z,15.33
2023-03-19T14:07:29.061Z,15.41
2023-03-19T14:09:59.929Z,15.48
2023-03-19T14:12:33.084Z,15.75
2023-03-19T14:15:09.258Z,16.07
2023-03-19T14:17:38.442Z,16.17
2023-03-19T14:20:37.047Z,16.25
2023-03-19T14:23:08.960Z,16.60
2023-03-19T14:26:10.345Z,16.74
2023-03-19T14:29:00.148Z,16.80
2023-03-19T14:31:54.457Z,16.83
2023-03-19T14:34:24.534Z,16.75
2023-03-19T14:37:28.767Z,16.73
2023-03-19T14:40:08.717Z,16.64
2023-03-19T14:42:58.650Z,16.60
2023-03-19T14:46:00.137Z,16.60
2023-03-19T14:48:58.143Z,16.63
2023-03-19T14:52:00.984Z,16.53
2023-03-19T14:54:34.066Z,16.47
2023-03-19T14:57:07.615Z,16.41
2023-03-19T14:59:39.018Z,16.59
2023-03-19T15:02:17.796Z,17.15
2023-03-19T15:04:46.703Z,17.60
2023-03-19T15:07:25.211Z,18.05
2023-03-19T15:09:55.236Z,18.35
2023-03-19T15:12:39.454Z,18.42
2023-03-19T15:15:15.492Z,18.54
2023-03-19T15:17:45.262Z,18.36
2023-03-19T15:20:19.341Z,18.75
2023-03-19T15:22:54.581Z,19.00
2023-03-19T15:25:21.962Z,18.90
2023-03-19T15:28:16.263Z,19.09
2023-03-19T15:30:54.987Z,19.29
2023-03-19T15:33:41.445Z,19.39
2023-03-19T15:36:18.594Z,19.38
2023-03-19T15:38:52.052Z,19.23
2023-03-19T15:41:19.622Z,18.92
2023-03-19T15:43:46.774Z,18.73
2023-03-19T15:46:17.059Z,18.50
2023-03-19T15:49:02.763Z,18.40
2023-03-19T15:51:29.830Z,18.08
2023-03-19T15:53:56.379Z,17.85
2023-03-19T15:56:23.806Z,17.61
2023-03-19T15:58:55.193Z,17.42
2023-03-19T16:01:21.856Z,17.27
2023-03-19T16:03:58.596Z,17.11
2023-03-19T16:06:31.690Z,16.91
2023-03-19T16:09:32.812Z,16.70
2023-03-19T16:12:00.873Z,16.55
2023-03-19T16:14:39.800Z,16.45
2023-03-19T16:17:14.549Z,16.38
2023-03-19T16:19:49.926Z,16.36
2023-03-19T16:22:21.275Z,16.30
2023-03-19T16:24:49.546Z,16.29
2023-03-19T16:27:21.625Z,16.26
2023-03-19T16:29:56.032Z,16.23
2023-03-19T16:32:25.257Z,16.16
2023-03-19T16:34:53.058Z,16.11
2023-03-19T16:37:34.764Z,16.06
2023-03-19T16:40:02.947Z,15.96
2023-03-19T16:42:32.405Z,15.90
2023-03-19T16:45:14.758Z,15.87
2023-03-19T16:47:42.229Z,15.83
2023-03-19T16:50:09.553Z,15.81
2023-03-19T16:52:37.323Z,15.77
2023-03-19T16:55:05.591Z,15.72
2023-03-19T16:57:32.072Z,15.66
2023-03-19T16:59:58.459Z,15.62
2023-03-19T17:02:24.935Z,15.57
2023-03-19T17:04:51.348Z,15.51
2023-03-19T17:07:17.783Z,15.48
2023-03-19T17:09:44.174Z,15.45
2023-03-19T17:12:14.886Z,15.44
2023-03-19T17:14:41.952Z,15.40
2023-03-19T17:17:20.635Z,15.37
2023-03-19T17:19:47.660Z,15.35
2023-03-19T17:22:14.458Z,15.33
2023-03-19T17:24:41.015Z,15.31
2023-03-19T17:27:09.482Z,15.31
2023-03-19T17:29:35.900Z,15.26
2023-03-19T17:32:06.803Z,15.16
2023-03-19T17:34:33.482Z,15.16
2023-03-19T17:37:01.716Z,15.13
2023-03-19T17:39:30.002Z,15.07
2023-03-19T17:41:56.627Z,15.03
2023-03-19T17:44:23.166Z,14.99
2023-03-19T17:46:52.162Z,14.95
2023-03-19T17:49:28.929Z,14.85
2023-03-19T17:51:56.201Z,14.72
2023-03-19T17:54:22.751Z,14.69
2023-03-19T17:56:49.152Z,14.63
2023-03-19T17:59:15.541Z,14.60
2023-03-19T18:01:47.106Z,14.59
2023-03-19T18:04:16.414Z,14.56
2023-03-19T18:06:46.611Z,14.52
2023-03-19T18:09:22.285Z,14.46
2023-03-19T18:11:48.825Z,14.38
2023-03-19T18:14:15.449Z,14.32
2023-03-19T18:16:42.882Z,14.24
2023-03-19T18:19:32.747Z,14.14
2023-03-19T18:21:59.265Z,14.02
2023-03-19T18:24:25.700Z,13.96
2023-03-19T18:26:52.124Z,13.86
2023-03-19T18:29:18.690Z,13.83
2023-03-19T18:31:49.001Z,13.77
2023-03-19T18:34:16.935Z,13.72
2023-03-19T18:36:43.476Z,13.68
2023-03-19T18:39:14.204Z,13.64
2023-03-19T18:41:41.612Z,13.59
2023-03-19T18:44:09.021Z,13.54
2023-03-19T18:46:37.628Z,13.50
2023-03-19T18:49:16.506Z,13.47
2023-03-19T18:51:58.834Z,13.43
2023-03-19T18:54:27.832Z,13.42
2023-03-19T18:56:56.150Z,13.41
2023-03-19T18:59:33.678Z,13.42
2023-03-19T19:02:03.478Z,13.40
2023-03-19T19:04:30.180Z,13.38
2023-03-19T19:06:56.667Z,13.35
2023-03-19T19:09:23.188Z,13.36
2023-03-19T19:11:49.665Z,13.33
2023-03-19T19:14:23.375Z,13.34
2023-03-19T19:16:51.208Z,13.29
2023-03-19T19:19:22.470Z,13.26
2023-03-19T19:21:52.942Z,13.23
2023-03-19T19:24:19.797Z,13.19
2023-03-19T19:26:48.500Z,13.15
2023-03-19T19:29:25.267Z,13.09
2023-03-19T19:31:53.267Z,13.05
2023-03-19T19:34:19.867Z,12.99
2023-03-19T19:36:46.512Z,12.93
2023-03-19T19:39:13.174Z,12.89
2023-03-19T19:41:40.472Z,12.84
2023-03-19T19:44:07.337Z,12.79
2023-03-19T19:46:33.838Z,12.75
2023-03-19T19:49:00.358Z,12.73
2023-03-19T19:51:28.150Z,12.71
2023-03-19T19:53:54.839Z,12.68
2023-03-19T19:56:26.539Z,12.68
2023-03-19T19:58:54.920Z,12.66
2023-03-19T20:01:24.776Z,12.64
2023-03-19T20:03:52.391Z,12.61
2023-03-19T20:06:19.960Z,12.58
2023-03-19T20:08:49.220Z,12.54
2023-03-19T20:11:18.627Z,12.55
2023-03-19T20:13:49.974Z,12.53
2023-03-19T20:16:17.250Z,12.50
2023-03-19T20:18:45.049Z,12.46
2023-03-19T20:21:13.109Z,12.46
2023-03-19T20:23:42.698Z,12.44
2023-03-19T20:26:18.223Z,12.44
2023-03-19T20:28:45.622Z,12.43
2023-03-19T20:31:32.918Z,12.40
2023-03-19T20:33:59.484Z,12.38
2023-03-19T20:36:26.655Z,12.35
2023-03-19T20:38:53.159Z,12.33
2023-03-19T20:41:21.441Z,12.31
2023-03-19T20:43:48.847Z,12.30
2023-03-19T20:46:17.528Z,12.26
2023-03-19T20:48:44.097Z,12.25
2023-03-19T20:51:24.991Z,12.24
2023-03-19T20:53:52.820Z,12.22
2023-03-19T20:56:22.610Z,12.20
2023-03-19T20:58:49.694Z,12.19
2023-03-19T21:01:16.750Z,12.16
2023-03-19T21:03:43.522Z,12.14
2023-03-19T21:06:16.448Z,12.13
2023-03-19T21:08:45.723Z,12.11
2023-03-19T21:11:17.693Z,12.09
2023-03-19T21:13:46.302Z,12.08
2023-03-19T21:16:18.026Z,12.08
2023-03-19T21:18:45.302Z,12.05
2023-03-19T21:21:14.605Z,12.04
2023-03-19T21:23:56.960Z,12.03
2023-03-19T21:26:24.743Z,12.03
2023-03-19T21:29:00.206Z,12.02
2023-03-19T21:31:27.174Z,12.02
2023-03-19T21:33:55.840Z,12.03
2023-03-19T21:36:23.601Z,12.03
2023-03-19T21:38:51.759Z,12.05
2023-03-19T21:41:30.332Z,12.06
2023-03-19T21:44:00.915Z,12.08
2023-03-19T21:46:30.421Z,12.09
2023-03-19T21:48:58.436Z,12.10
2023-03-19T21:51:27.599Z,12.10
2023-03-19T21:53:54.441Z,12.09
2023-03-19T21:56:24.893Z,12.09
2023-03-19T21:58:53.053Z,12.07
2023-03-19T22:01:24.823Z,12.08
2023-03-19T22:03:53.131Z,12.05
2023-03-19T22:06:19.828Z,12.05
2023-03-19T22:08:48.051Z,12.04
2023-03-19T22:11:35.409Z,12.03
2023-03-19T22:14:24.507Z,12.00
2023-03-19T22:16:53.433Z,12.00
2023-03-19T22:19:20.718Z,11.98
2023-03-19T22:21:47.558Z,11.97
2023-03-19T22:24:13.997Z,11.94
2023-03-19T22:26:42.995Z,11.93
2023-03-19T22:29:22.063Z,11.91
2023-03-19T22:31:49.357Z,11.89
2023-03-19T22:34:18.492Z,11.91
2023-03-19T22:36:45.258Z,11.89
2023-03-19T22:39:12.131Z,11.91
2023-03-19T22:41:42.619Z,11.94
2023-03-19T22:44:18.174Z,11.95
2023-03-19T22:46:44.771Z,11.96
2023-03-19T22:49:15.417Z,11.98
2023-03-19T22:51:41.844Z,12.01
2023-03-19T22:54:08.773Z,12.04
2023-03-19T22:56:35.154Z,12.04
2023-03-19T22:59:01.757Z,12.05
2023-03-19T23:01:46.354Z,12.05
2023-03-19T23:04:18.222Z,12.05
2023-03-19T23:06:45.276Z,12.06
2023-03-19T23:09:17.608Z,12.03
2023-03-19T23:11:44.204Z,12.04
2023-03-19T23:14:25.937Z,12.05
2023-03-19T23:16:56.707Z,11.98
2023-03-19T23:19:35.379Z,11.99
2023-03-19T23:22:04.722Z,11.97
2023-03-19T23:24:31.155Z,11.95
2023-03-19T23:26:59.524Z,11.87
2023-03-19T23:29:36.111Z,11.86
2023-03-19T23:32:04.398Z,11.83
2023-03-19T23:34:33.539Z,11.79
2023-03-19T23:37:02.546Z,11.75
2023-03-19T23:39:29.333Z,11.71
2023-03-19T23:41:58.285Z,11.66
2023-03-19T23:44:26.361Z,11.60
2023-03-19T23:46:53.354Z,11.54
2023-03-19T23:49:32.241Z,11.46
2023-03-19T23:51:59.313Z,11.37
2023-03-19T23:54:29.296Z,11.30
2023-03-19T23:57:01.600Z,11.24
2023-03-19T23:59:32.002Z,11.23
